sensor_id;sensor_type;location;lat;lon;timestamp;P1;durP1;ratioP1;P2;durP2;ratioP2
78610;SDS011;67932;50.474;4.436;2023-03-09T00:00:02;8.77;;;4.05;;
78610;SDS011;67932;50.474;4.436;2023-03-09T00:04:59;10.15;;;4.60;;
78610;SDS011;67932;50.474;4.436;2023-03-09T00:07:26;8.98;;;4.80;;
78610;SDS011;67932;50.474;4.436;2023-03-09T00:09:55;9.35;;;5.05;;
78610;SDS011;67932;50.474;4.436;2023-03-09T00:12:21;12.55;;;7.15;;
78610;SDS011;67932;50.474;4.436;2023-03-09T00:14:51;13.75;;;8.98;;
78610;SDS011;67932;50.474;4.436;2023-03-09T00:17:17;15.55;;;8.88;;
78610;SDS011;67932;50.474;4.436;2023-03-09T00:19:43;19.05;;;10.55;;
78610;SDS011;67932;50.474;4.436;2023-03-09T00:22:09;16.65;;;9.95;;
78610;SDS011;67932;50.474;4.436;2023-03-09T00:24:35;18.05;;;10.27;;
78610;SDS011;67932;50.474;4.436;2023-03-09T00:27:10;14.80;;;9.10;;
78610;SDS011;67932;50.474;4.436;2023-03-09T00:29:39;15.52;;;9.80;;
78610;SDS011;67932;50.474;4.436;2023-03-09T00:32:05;21.33;;;10.95;;
78610;SDS011;67932;50.474;4.436;2023-03-09T00:34:31;18.05;;;10.05;;
78610;SDS011;67932;50.474;4.436;2023-03-09T00:36:57;19.70;;;11.05;;
78610;SDS011;67932;50.474;4.436;2023-03-09T00:39:23;18.70;;;10.73;;
78610;SDS011;67932;50.474;4.436;2023-03-09T00:41:49;19.80;;;10.05;;
78610;SDS011;67932;50.474;4.436;2023-03-09T00:44:15;19.30;;;10.02;;
78610;SDS011;67932;50.474;4.436;2023-03-09T00:46:42;22.30;;;11.55;;
78610;SDS011;67932;50.474;4.436;2023-03-09T00:49:09;22.17;;;12.00;;
78610;SDS011;67932;50.474;4.436;2023-03-09T00:51:36;21.08;;;11.43;;
78610;SDS011;67932;50.474;4.436;2023-03-09T00:54:02;24.45;;;11.70;;
78610;SDS011;67932;50.474;4.436;2023-03-09T00:56:29;25.48;;;12.95;;
78610;SDS011;67932;50.474;4.436;2023-03-09T00:58:56;24.23;;;13.27;;
78610;SDS011;67932;50.474;4.436;2023-03-09T01:01:22;22.88;;;11.73;;
78610;SDS011;67932;50.474;4.436;2023-03-09T01:03:48;30.70;;;13.75;;
78610;SDS011;67932;50.474;4.436;2023-03-09T01:06:15;28.60;;;13.13;;
78610;SDS011;67932;50.474;4.436;2023-03-09T01:08:41;27.90;;;13.75;;
78610;SDS011;67932;50.474;4.436;2023-03-09T01:11:08;25.92;;;12.35;;
78610;SDS011;67932;50.474;4.436;2023-03-09T01:13:35;27.48;;;10.95;;
78610;SDS011;67932;50.474;4.436;2023-03-09T01:16:01;28.60;;;12.77;;
78610;SDS011;67932;50.474;4.436;2023-03-09T01:18:27;21.55;;;9.73;;
78610;SDS011;67932;50.474;4.436;2023-03-09T01:20:53;20.80;;;8.43;;
78610;SDS011;67932;50.474;4.436;2023-03-09T01:23:20;19.05;;;8.63;;
78610;SDS011;67932;50.474;4.436;2023-03-09T01:25:46;20.67;;;8.60;;
78610;SDS011;67932;50.474;4.436;2023-03-09T01:28:12;19.95;;;9.50;;
78610;SDS011;67932;50.474;4.436;2023-03-09T01:30:38;22.67;;;10.63;;
78610;SDS011;67932;50.474;4.436;2023-03-09T01:33:04;23.55;;;10.23;;
78610;SDS011;67932;50.474;4.436;2023-03-09T01:35:30;20.67;;;8.63;;
78610;SDS011;67932;50.474;4.436;2023-03-09T01:37:56;22.17;;;9.63;;
78610;SDS011;67932;50.474;4.436;2023-03-09T01:40:24;17.30;;;8.52;;
78610;SDS011;67932;50.474;4.436;2023-03-09T01:42:54;18.15;;;6.93;;
78610;SDS011;67932;50.474;4.436;2023-03-09T01:47:46;18.95;;;7.03;;
78610;SDS011;67932;50.474;4.436;2023-03-09T01:50:32;21.15;;;6.95;;
78610;SDS011;67932;50.474;4.436;2023-03-09T01:53:00;12.38;;;4.82;;
78610;SDS011;67932;50.474;4.436;2023-03-09T01:55:30;17.80;;;3.95;;
78610;SDS011;67932;50.474;4.436;2023-03-09T01:58:02;21.20;;;4.47;;
78610;SDS011;67932;50.474;4.436;2023-03-09T02:00:29;22.52;;;3.55;;
78610;SDS011;67932;50.474;4.436;2023-03-09T02:02:57;26.00;;;3.88;;
78610;SDS011;67932;50.474;4.436;2023-03-09T02:05:26;17.00;;;3.10;;
78610;SDS011;67932;50.474;4.436;2023-03-09T02:07:52;21.15;;;4.82;;
78610;SDS011;67932;50.474;4.436;2023-03-09T02:12:49;21.30;;;3.50;;
78610;SDS011;67932;50.474;4.436;2023-03-09T02:15:20;17.98;;;3.67;;
78610;SDS011;67932;50.474;4.436;2023-03-09T02:17:47;24.52;;;3.92;;
78610;SDS011;67932;50.474;4.436;2023-03-09T02:20:20;15.50;;;3.38;;
78610;SDS011;67932;50.474;4.436;2023-03-09T02:22:48;18.17;;;3.10;;
78610;SDS011;67932;50.474;4.436;2023-03-09T02:27:52;26.02;;;4.05;;
78610;SDS011;67932;50.474;4.436;2023-03-09T02:30:19;17.35;;;3.58;;
78610;SDS011;67932;50.474;4.436;2023-03-09T02:32:45;28.13;;;5.43;;
78610;SDS011;67932;50.474;4.436;2023-03-09T02:35:11;27.95;;;5.47;;
78610;SDS011;67932;50.474;4.436;2023-03-09T02:37:38;12.57;;;3.70;;
78610;SDS011;67932;50.474;4.436;2023-03-09T02:45:15;17.00;;;3.15;;
78610;SDS011;67932;50.474;4.436;2023-03-09T02:47:42;24.70;;;3.42;;
78610;SDS011;67932;50.474;4.436;2023-03-09T02:50:08;16.98;;;2.97;;
78610;SDS011;67932;50.474;4.436;2023-03-09T02:52:35;25.13;;;4.10;;
78610;SDS011;67932;50.474;4.436;2023-03-09T02:55:01;21.23;;;4.00;;
78610;SDS011;67932;50.474;4.436;2023-03-09T02:57:28;14.20;;;2.33;;
78610;SDS011;67932;50.474;4.436;2023-03-09T02:59:54;12.70;;;2.63;;
78610;SDS011;67932;50.474;4.436;2023-03-09T03:02:20;17.25;;;2.25;;
78610;SDS011;67932;50.474;4.436;2023-03-09T03:04:46;11.80;;;2.90;;
78610;SDS011;67932;50.474;4.436;2023-03-09T03:07:12;8.05;;;1.63;;
78610;SDS011;67932;50.474;4.436;2023-03-09T03:09:38;11.77;;;1.73;;
78610;SDS011;67932;50.474;4.436;2023-03-09T03:12:04;11.18;;;2.22;;
78610;SDS011;67932;50.474;4.436;2023-03-09T03:14:30;14.60;;;2.25;;
78610;SDS011;67932;50.474;4.436;2023-03-09T03:16:56;10.00;;;2.00;;
78610;SDS011;67932;50.474;4.436;2023-03-09T03:19:23;14.25;;;2.10;;
78610;SDS011;67932;50.474;4.436;2023-03-09T03:21:49;6.35;;;1.25;;
78610;SDS011;67932;50.474;4.436;2023-03-09T03:24:16;9.55;;;1.95;;
78610;SDS011;67932;50.474;4.436;2023-03-09T03:26:42;4.70;;;1.42;;
78610;SDS011;67932;50.474;4.436;2023-03-09T03:29:08;6.15;;;1.77;;
78610;SDS011;67932;50.474;4.436;2023-03-09T03:31:36;4.90;;;1.15;;
78610;SDS011;67932;50.474;4.436;2023-03-09T03:34:02;7.88;;;2.08;;
78610;SDS011;67932;50.474;4.436;2023-03-09T03:36:28;7.25;;;1.05;;
78610;SDS011;67932;50.474;4.436;2023-03-09T03:38:54;7.35;;;1.35;;
78610;SDS011;67932;50.474;4.436;2023-03-09T03:41:20;7.22;;;1.48;;
78610;SDS011;67932;50.474;4.436;2023-03-09T03:43:48;7.90;;;1.83;;
78610;SDS011;67932;50.474;4.436;2023-03-09T03:46:14;11.00;;;2.40;;
78610;SDS011;67932;50.474;4.436;2023-03-09T03:48:40;9.38;;;1.90;;
78610;SDS011;67932;50.474;4.436;2023-03-09T03:51:07;17.80;;;1.73;;
78610;SDS011;67932;50.474;4.436;2023-03-09T03:53:34;12.68;;;1.80;;
78610;SDS011;67932;50.474;4.436;2023-03-09T03:56:00;8.48;;;2.38;;
78610;SDS011;67932;50.474;4.436;2023-03-09T03:58:28;8.82;;;1.58;;
78610;SDS011;67932;50.474;4.436;2023-03-09T04:00:54;11.00;;;2.95;;
78610;SDS011;67932;50.474;4.436;2023-03-09T04:03:20;8.00;;;1.38;;
78610;SDS011;67932;50.474;4.436;2023-03-09T04:05:46;8.27;;;1.50;;
78610;SDS011;67932;50.474;4.436;2023-03-09T04:08:12;7.00;;;1.13;;
78610;SDS011;67932;50.474;4.436;2023-03-09T04:10:38;8.52;;;1.42;;
78610;SDS011;67932;50.474;4.436;2023-03-09T04:13:04;12.98;;;1.70;;
78610;SDS011;67932;50.474;4.436;2023-03-09T04:15:33;7.28;;;2.00;;
78610;SDS011;67932;50.474;4.436;2023-03-09T04:18:00;7.57;;;1.23;;
78610;SDS011;67932;50.474;4.436;2023-03-09T04:20:26;7.63;;;1.02;;
78610;SDS011;67932;50.474;4.436;2023-03-09T04:22:52;7.60;;;1.17;;
78610;SDS011;67932;50.474;4.436;2023-03-09T04:25:19;7.97;;;1.40;;
78610;SDS011;67932;50.474;4.436;2023-03-09T04:27:45;9.98;;;1.60;;
78610;SDS011;67932;50.474;4.436;2023-03-09T04:30:11;4.47;;;1.33;;
78610;SDS011;67932;50.474;4.436;2023-03-09T04:32:37;9.38;;;1.50;;
78610;SDS011;67932;50.474;4.436;2023-03-09T04:35:04;8.88;;;1.48;;
78610;SDS011;67932;50.474;4.436;2023-03-09T04:37:30;7.18;;;1.40;;
78610;SDS011;67932;50.474;4.436;2023-03-09T04:39:56;8.98;;;1.67;;
78610;SDS011;67932;50.474;4.436;2023-03-09T04:42:22;8.10;;;1.83;;
78610;SDS011;67932;50.474;4.436;2023-03-09T04:44:48;7.10;;;1.02;;
78610;SDS011;67932;50.474;4.436;2023-03-09T04:47:14;5.53;;;1.27;;
78610;SDS011;67932;50.474;4.436;2023-03-09T04:49:41;6.45;;;1.73;;
78610;SDS011;67932;50.474;4.436;2023-03-09T04:52:07;7.32;;;2.30;;
78610;SDS011;67932;50.474;4.436;2023-03-09T04:54:33;7.57;;;1.95;;
78610;SDS011;67932;50.474;4.436;2023-03-09T04:56:59;5.68;;;1.55;;
78610;SDS011;67932;50.474;4.436;2023-03-09T04:59:25;9.90;;;2.25;;
78610;SDS011;67932;50.474;4.436;2023-03-09T05:01:51;6.00;;;1.10;;
78610;SDS011;67932;50.474;4.436;2023-03-09T05:04:17;5.18;;;1.30;;
78610;SDS011;67932;50.474;4.436;2023-03-09T05:06:43;10.57;;;1.73;;
78610;SDS011;67932;50.474;4.436;2023-03-09T05:09:10;5.22;;;1.15;;
78610;SDS011;67932;50.474;4.436;2023-03-09T05:11:36;5.85;;;1.52;;
78610;SDS011;67932;50.474;4.436;2023-03-09T05:14:02;9.15;;;2.53;;
78610;SDS011;67932;50.474;4.436;2023-03-09T05:16:28;5.40;;;1.40;;
78610;SDS011;67932;50.474;4.436;2023-03-09T05:18:54;6.72;;;2.03;;
78610;SDS011;67932;50.474;4.436;2023-03-09T05:21:20;6.70;;;2.00;;
78610;SDS011;67932;50.474;4.436;2023-03-09T05:23:46;5.65;;;1.73;;
78610;SDS011;67932;50.474;4.436;2023-03-09T05:26:13;5.07;;;1.80;;
78610;SDS011;67932;50.474;4.436;2023-03-09T05:28:39;8.70;;;2.03;;
78610;SDS011;67932;50.474;4.436;2023-03-09T05:31:09;7.53;;;2.00;;
78610;SDS011;67932;50.474;4.436;2023-03-09T05:33:36;8.38;;;1.83;;
78610;SDS011;67932;50.474;4.436;2023-03-09T05:36:02;9.00;;;1.55;;
78610;SDS011;67932;50.474;4.436;2023-03-09T05:38:28;5.28;;;1.40;;
78610;SDS011;67932;50.474;4.436;2023-03-09T05:40:54;7.05;;;2.30;;
78610;SDS011;67932;50.474;4.436;2023-03-09T05:43:20;6.03;;;1.50;;
78610;SDS011;67932;50.474;4.436;2023-03-09T05:45:55;6.20;;;1.30;;
78610;SDS011;67932;50.474;4.436;2023-03-09T05:48:22;12.00;;;1.85;;
78610;SDS011;67932;50.474;4.436;2023-03-09T05:50:48;4.40;;;1.20;;
78610;SDS011;67932;50.474;4.436;2023-03-09T05:53:14;6.97;;;2.28;;
78610;SDS011;67932;50.474;4.436;2023-03-09T05:55:41;8.27;;;1.50;;
78610;SDS011;67932;50.474;4.436;2023-03-09T05:58:07;5.78;;;1.50;;
78610;SDS011;67932;50.474;4.436;2023-03-09T06:00:33;9.07;;;1.48;;
78610;SDS011;67932;50.474;4.436;2023-03-09T06:02:59;6.45;;;1.77;;
78610;SDS011;67932;50.474;4.436;2023-03-09T06:05:25;2.58;;;1.38;;
78610;SDS011;67932;50.474;4.436;2023-03-09T06:07:51;5.10;;;1.27;;
78610;SDS011;67932;50.474;4.436;2023-03-09T06:10:17;5.65;;;1.80;;
78610;SDS011;67932;50.474;4.436;2023-03-09T06:12:43;6.07;;;1.70;;
78610;SDS011;67932;50.474;4.436;2023-03-09T06:15:09;9.77;;;1.90;;
78610;SDS011;67932;50.474;4.436;2023-03-09T06:17:35;5.57;;;1.98;;
78610;SDS011;67932;50.474;4.436;2023-03-09T06:20:02;8.35;;;2.33;;
78610;SDS011;67932;50.474;4.436;2023-03-09T06:22:29;8.15;;;1.83;;
78610;SDS011;67932;50.474;4.436;2023-03-09T06:24:55;9.75;;;2.53;;
78610;SDS011;67932;50.474;4.436;2023-03-09T06:27:21;7.95;;;1.73;;
78610;SDS011;67932;50.474;4.436;2023-03-09T06:29:47;7.57;;;1.88;;
78610;SDS011;67932;50.474;4.436;2023-03-09T06:32:13;7.60;;;1.67;;
78610;SDS011;67932;50.474;4.436;2023-03-09T06:34:39;8.45;;;2.25;;
78610;SDS011;67932;50.474;4.436;2023-03-09T06:37:05;11.15;;;2.05;;
78610;SDS011;67932;50.474;4.436;2023-03-09T06:39:31;10.93;;;2.13;;
78610;SDS011;67932;50.474;4.436;2023-03-09T06:42:07;9.52;;;2.55;;
78610;SDS011;67932;50.474;4.436;2023-03-09T06:44:34;8.63;;;1.58;;
78610;SDS011;67932;50.474;4.436;2023-03-09T06:47:01;8.10;;;1.77;;
78610;SDS011;67932;50.474;4.436;2023-03-09T06:49:28;10.13;;;2.22;;
78610;SDS011;67932;50.474;4.436;2023-03-09T06:51:59;7.70;;;1.80;;
78610;SDS011;67932;50.474;4.436;2023-03-09T06:54:25;6.68;;;1.80;;
78610;SDS011;67932;50.474;4.436;2023-03-09T06:56:51;8.05;;;2.22;;
78610;SDS011;67932;50.474;4.436;2023-03-09T06:59:17;7.78;;;1.90;;
78610;SDS011;67932;50.474;4.436;2023-03-09T07:01:45;6.40;;;2.00;;
78610;SDS011;67932;50.474;4.436;2023-03-09T07:04:11;12.68;;;2.25;;
78610;SDS011;67932;50.474;4.436;2023-03-09T07:06:38;16.00;;;2.80;;
78610;SDS011;67932;50.474;4.436;2023-03-09T07:09:05;6.93;;;1.90;;
78610;SDS011;67932;50.474;4.436;2023-03-09T07:11:31;6.70;;;1.70;;
78610;SDS011;67932;50.474;4.436;2023-03-09T07:13:57;4.53;;;1.60;;
78610;SDS011;67932;50.474;4.436;2023-03-09T07:16:23;7.28;;;2.05;;
78610;SDS011;67932;50.474;4.436;2023-03-09T07:18:51;7.72;;;1.50;;
78610;SDS011;67932;50.474;4.436;2023-03-09T07:21:17;7.90;;;2.03;;
78610;SDS011;67932;50.474;4.436;2023-03-09T07:23:43;7.72;;;2.13;;
78610;SDS011;67932;50.474;4.436;2023-03-09T07:26:09;8.05;;;1.70;;
78610;SDS011;67932;50.474;4.436;2023-03-09T07:28:38;5.10;;;1.52;;
78610;SDS011;67932;50.474;4.436;2023-03-09T07:31:08;5.38;;;1.48;;
78610;SDS011;67932;50.474;4.436;2023-03-09T07:33:34;9.23;;;2.42;;
78610;SDS011;67932;50.474;4.436;2023-03-09T07:36:04;8.23;;;2.40;;
78610;SDS011;67932;50.474;4.436;2023-03-09T07:38:30;10.93;;;2.38;;
78610;SDS011;67932;50.474;4.436;2023-03-09T07:40:57;8.68;;;2.25;;
78610;SDS011;67932;50.474;4.436;2023-03-09T07:43:23;7.40;;;2.00;;
78610;SDS011;67932;50.474;4.436;2023-03-09T07:45:49;3.97;;;1.73;;
78610;SDS011;67932;50.474;4.436;2023-03-09T07:48:15;6.38;;;1.83;;
78610;SDS011;67932;50.474;4.436;2023-03-09T07:50:42;4.60;;;1.50;;
78610;SDS011;67932;50.474;4.436;2023-03-09T07:53:08;5.40;;;1.70;;
78610;SDS011;67932;50.474;4.436;2023-03-09T07:55:35;4.25;;;1.50;;
78610;SDS011;67932;50.474;4.436;2023-03-09T07:58:01;7.13;;;1.83;;
78610;SDS011;67932;50.474;4.436;2023-03-09T08:00:28;4.00;;;2.28;;
78610;SDS011;67932;50.474;4.436;2023-03-09T08:02:54;7.20;;;2.10;;
78610;SDS011;67932;50.474;4.436;2023-03-09T08:05:21;6.65;;;2.42;;
78610;SDS011;67932;50.474;4.436;2023-03-09T08:07:47;8.35;;;3.05;;
78610;SDS011;67932;50.474;4.436;2023-03-09T08:10:19;7.68;;;2.28;;
78610;SDS011;67932;50.474;4.436;2023-03-09T08:12:46;8.05;;;3.50;;
78610;SDS011;67932;50.474;4.436;2023-03-09T08:15:13;11.38;;;3.45;;
78610;SDS011;67932;50.474;4.436;2023-03-09T08:17:39;12.48;;;3.78;;
78610;SDS011;67932;50.474;4.436;2023-03-09T08:20:05;13.15;;;3.35;;
78610;SDS011;67932;50.474;4.436;2023-03-09T08:22:36;11.20;;;2.90;;
78610;SDS011;67932;50.474;4.436;2023-03-09T08:25:02;10.95;;;3.38;;
78610;SDS011;67932;50.474;4.436;2023-03-09T08:27:29;11.60;;;3.78;;
78610;SDS011;67932;50.474;4.436;2023-03-09T08:29:55;13.30;;;3.10;;
78610;SDS011;67932;50.474;4.436;2023-03-09T08:32:21;9.25;;;2.50;;
78610;SDS011;67932;50.474;4.436;2023-03-09T08:34:53;13.63;;;3.20;;
78610;SDS011;67932;50.474;4.436;2023-03-09T08:37:19;12.85;;;3.97;;
78610;SDS011;67932;50.474;4.436;2023-03-09T08:39:45;11.45;;;4.20;;
78610;SDS011;67932;50.474;4.436;2023-03-09T08:42:12;17.65;;;3.65;;
78610;SDS011;67932;50.474;4.436;2023-03-09T08:44:38;15.18;;;3.70;;
78610;SDS011;67932;50.474;4.436;2023-03-09T08:47:04;21.65;;;10.43;;
78610;SDS011;67932;50.474;4.436;2023-03-09T08:49:30;16.55;;;5.45;;
78610;SDS011;67932;50.474;4.436;2023-03-09T08:51:56;11.63;;;3.38;;
78610;SDS011;67932;50.474;4.436;2023-03-09T08:54:22;14.38;;;5.53;;
78610;SDS011;67932;50.474;4.436;2023-03-09T08:56:48;11.27;;;2.65;;
78610;SDS011;67932;50.474;4.436;2023-03-09T08:59:14;25.40;;;9.07;;
78610;SDS011;67932;50.474;4.436;2023-03-09T09:01:40;15.07;;;3.35;;
78610;SDS011;67932;50.474;4.436;2023-03-09T09:04:12;36.33;;;15.00;;
78610;SDS011;67932;50.474;4.436;2023-03-09T09:06:43;25.98;;;10.38;;
78610;SDS011;67932;50.474;4.436;2023-03-09T09:09:09;19.35;;;5.55;;
78610;SDS011;67932;50.474;4.436;2023-03-09T09:11:35;15.20;;;4.18;;
78610;SDS011;67932;50.474;4.436;2023-03-09T09:14:01;17.70;;;7.38;;
78610;SDS011;67932;50.474;4.436;2023-03-09T09:16:27;13.13;;;4.18;;
78610;SDS011;67932;50.474;4.436;2023-03-09T09:18:54;14.10;;;2.58;;
78610;SDS011;67932;50.474;4.436;2023-03-09T09:21:21;8.48;;;3.40;;
78610;SDS011;67932;50.474;4.436;2023-03-09T09:23:47;18.13;;;4.43;;
78610;SDS011;67932;50.474;4.436;2023-03-09T09:26:14;12.00;;;4.43;;
78610;SDS011;67932;50.474;4.436;2023-03-09T09:28:41;15.98;;;3.63;;
78610;SDS011;67932;50.474;4.436;2023-03-09T09:31:09;9.38;;;3.80;;
78610;SDS011;67932;50.474;4.436;2023-03-09T09:33:38;14.95;;;3.83;;
78610;SDS011;67932;50.474;4.436;2023-03-09T09:36:05;13.30;;;3.38;;
78610;SDS011;67932;50.474;4.436;2023-03-09T09:38:34;13.15;;;4.45;;
78610;SDS011;67932;50.474;4.436;2023-03-09T09:43:53;9.15;;;4.20;;
78610;SDS011;67932;50.474;4.436;2023-03-09T09:46:22;13.32;;;2.80;;
78610;SDS011;67932;50.474;4.436;2023-03-09T09:48:49;8.60;;;2.10;;
78610;SDS011;67932;50.474;4.436;2023-03-09T09:57:07;7.85;;;1.90;;
78610;SDS011;67932;50.474;4.436;2023-03-09T10:07:56;8.15;;;3.75;;
78610;SDS011;67932;50.474;4.436;2023-03-09T10:10:25;8.55;;;3.75;;
78610;SDS011;67932;50.474;4.436;2023-03-09T10:12:56;9.18;;;2.92;;
78610;SDS011;67932;50.474;4.436;2023-03-09T10:15:27;9.05;;;3.85;;
78610;SDS011;67932;50.474;4.436;2023-03-09T10:18:06;13.40;;;3.42;;
78610;SDS011;67932;50.474;4.436;2023-03-09T10:20:36;10.95;;;3.45;;
78610;SDS011;67932;50.474;4.436;2023-03-09T10:23:22;14.98;;;4.20;;
78610;SDS011;67932;50.474;4.436;2023-03-09T10:28:41;12.65;;;2.92;;
78610;SDS011;67932;50.474;4.436;2023-03-09T10:31:16;21.70;;;4.80;;
78610;SDS011;67932;50.474;4.436;2023-03-09T10:38:45;16.02;;;3.60;;
78610;SDS011;67932;50.474;4.436;2023-03-09T10:41:19;15.38;;;3.15;;
78610;SDS011;67932;50.474;4.436;2023-03-09T10:43:56;17.65;;;4.13;;
78610;SDS011;67932;50.474;4.436;2023-03-09T10:46:25;15.93;;;3.53;;
78610;SDS011;67932;50.474;4.436;2023-03-09T10:49:13;10.32;;;2.53;;
78610;SDS011;67932;50.474;4.436;2023-03-09T10:51:43;9.30;;;2.05;;
78610;SDS011;67932;50.474;4.436;2023-03-09T10:54:25;8.10;;;2.33;;
78610;SDS011;67932;50.474;4.436;2023-03-09T10:56:54;4.85;;;1.42;;
78610;SDS011;67932;50.474;4.436;2023-03-09T10:59:21;3.80;;;1.20;;
78610;SDS011;67932;50.474;4.436;2023-03-09T11:02:03;8.65;;;2.10;;
78610;SDS011;67932;50.474;4.436;2023-03-09T11:04:37;5.88;;;2.60;;
78610;SDS011;67932;50.474;4.436;2023-03-09T11:07:22;7.82;;;2.08;;
78610;SDS011;67932;50.474;4.436;2023-03-09T11:09:54;7.88;;;3.05;;
78610;SDS011;67932;50.474;4.436;2023-03-09T11:14:47;8.18;;;3.53;;
78610;SDS011;67932;50.474;4.436;2023-03-09T11:28:15;17.00;;;4.05;;
78610;SDS011;67932;50.474;4.436;2023-03-09T11:30:51;10.02;;;2.55;;
78610;SDS011;67932;50.474;4.436;2023-03-09T11:33:28;13.98;;;2.35;;
78610;SDS011;67932;50.474;4.436;2023-03-09T11:35:55;10.23;;;2.45;;
78610;SDS011;67932;50.474;4.436;2023-03-09T11:38:22;10.55;;;2.40;;
78610;SDS011;67932;50.474;4.436;2023-03-09T11:40:49;12.50;;;2.58;;
78610;SDS011;67932;50.474;4.436;2023-03-09T11:43:26;10.40;;;2.58;;
78610;SDS011;67932;50.474;4.436;2023-03-09T11:45:58;13.88;;;2.70;;
78610;SDS011;67932;50.474;4.436;2023-03-09T11:54:41;9.57;;;2.58;;
78610;SDS011;67932;50.474;4.436;2023-03-09T11:57:18;16.65;;;3.80;;
78610;SDS011;67932;50.474;4.436;2023-03-09T11:59:53;10.85;;;2.50;;
78610;SDS011;67932;50.474;4.436;2023-03-09T12:02:37;10.98;;;2.75;;
78610;SDS011;67932;50.474;4.436;2023-03-09T12:05:13;10.70;;;2.75;;
78610;SDS011;67932;50.474;4.436;2023-03-09T12:10:15;12.05;;;2.63;;
78610;SDS011;67932;50.474;4.436;2023-03-09T12:18:29;9.55;;;2.53;;
78610;SDS011;67932;50.474;4.436;2023-03-09T12:21:03;11.57;;;2.10;;
78610;SDS011;67932;50.474;4.436;2023-03-09T12:26:22;15.07;;;2.38;;
78610;SDS011;67932;50.474;4.436;2023-03-09T12:31:35;15.68;;;4.45;;
78610;SDS011;67932;50.474;4.436;2023-03-09T12:34:17;15.02;;;4.30;;
78610;SDS011;67932;50.474;4.436;2023-03-09T12:36:50;9.35;;;2.38;;
78610;SDS011;67932;50.474;4.436;2023-03-09T12:39:30;14.43;;;2.60;;
78610;SDS011;67932;50.474;4.436;2023-03-09T12:47:25;9.27;;;2.33;;
78610;SDS011;67932;50.474;4.436;2023-03-09T12:50:04;11.65;;;4.30;;
78610;SDS011;67932;50.474;4.436;2023-03-09T12:55:14;9.55;;;3.08;;
78610;SDS011;67932;50.474;4.436;2023-03-09T12:57:44;11.20;;;2.45;;
78610;SDS011;67932;50.474;4.436;2023-03-09T13:00:24;10.73;;;1.50;;
78610;SDS011;67932;50.474;4.436;2023-03-09T13:03:12;12.15;;;2.65;;
78610;SDS011;67932;50.474;4.436;2023-03-09T13:05:48;11.43;;;2.20;;
78610;SDS011;67932;50.474;4.436;2023-03-09T13:24:17;13.23;;;3.65;;
78610;SDS011;67932;50.474;4.436;2023-03-09T13:26:45;10.10;;;1.70;;
78610;SDS011;67932;50.474;4.436;2023-03-09T13:29:15;8.35;;;3.22;;
78610;SDS011;67932;50.474;4.436;2023-03-09T13:31:42;8.25;;;2.28;;
78610;SDS011;67932;50.474;4.436;2023-03-09T13:34:44;10.80;;;2.60;;
78610;SDS011;67932;50.474;4.436;2023-03-09T13:37:07;14.77;;;3.33;;
78610;SDS011;67932;50.474;4.436;2023-03-09T13:39:38;14.60;;;2.72;;
78610;SDS011;67932;50.474;4.436;2023-03-09T13:42:14;11.50;;;2.17;;
78610;SDS011;67932;50.474;4.436;2023-03-09T13:44:53;9.95;;;2.05;;
78610;SDS011;67932;50.474;4.436;2023-03-09T13:47:29;8.00;;;1.77;;
78610;SDS011;67932;50.474;4.436;2023-03-09T13:49:56;10.77;;;2.00;;
78610;SDS011;67932;50.474;4.436;2023-03-09T13:52:24;9.95;;;1.83;;
78610;SDS011;67932;50.474;4.436;2023-03-09T13:55:15;10.90;;;1.98;;
78610;SDS011;67932;50.474;4.436;2023-03-09T13:57:40;11.25;;;2.20;;
78610;SDS011;67932;50.474;4.436;2023-03-09T14:02:41;16.23;;;3.00;;
78610;SDS011;67932;50.474;4.436;2023-03-09T14:07:56;11.65;;;3.30;;
78610;SDS011;67932;50.474;4.436;2023-03-09T14:10:26;11.98;;;2.70;;
78610;SDS011;67932;50.474;4.436;2023-03-09T14:15:22;17.65;;;3.25;;
78610;SDS011;67932;50.474;4.436;2023-03-09T14:17:49;15.93;;;3.50;;
78610;SDS011;67932;50.474;4.436;2023-03-09T14:20:17;16.05;;;3.85;;
78610;SDS011;67932;50.474;4.436;2023-03-09T14:25:36;8.68;;;2.25;;
78610;SDS011;67932;50.474;4.436;2023-03-09T14:31:18;11.02;;;2.63;;
78610;SDS011;67932;50.474;4.436;2023-03-09T14:34:13;10.60;;;2.15;;
78610;SDS011;67932;50.474;4.436;2023-03-09T14:36:57;14.50;;;2.28;;
78610;SDS011;67932;50.474;4.436;2023-03-09T14:39:31;12.30;;;2.65;;
78610;SDS011;67932;50.474;4.436;2023-03-09T14:42:05;10.00;;;2.63;;
78610;SDS011;67932;50.474;4.436;2023-03-09T14:44:39;14.45;;;3.38;;
78610;SDS011;67932;50.474;4.436;2023-03-09T14:47:14;13.63;;;2.20;;
78610;SDS011;67932;50.474;4.436;2023-03-09T14:49:41;9.88;;;1.92;;
78610;SDS011;67932;50.474;4.436;2023-03-09T14:52:10;11.25;;;2.42;;
78610;SDS011;67932;50.474;4.436;2023-03-09T14:57:15;22.38;;;5.53;;
78610;SDS011;67932;50.474;4.436;2023-03-09T14:59:47;9.48;;;2.42;;
78610;SDS011;67932;50.474;4.436;2023-03-09T15:02:34;8.52;;;2.72;;
78610;SDS011;67932;50.474;4.436;2023-03-09T15:05:03;17.65;;;2.53;;
78610;SDS011;67932;50.474;4.436;2023-03-09T15:07:32;18.77;;;2.90;;
78610;SDS011;67932;50.474;4.436;2023-03-09T15:09:58;17.83;;;2.92;;
78610;SDS011;67932;50.474;4.436;2023-03-09T15:12:27;13.32;;;2.80;;
78610;SDS011;67932;50.474;4.436;2023-03-09T15:14:57;9.65;;;2.47;;
78610;SDS011;67932;50.474;4.436;2023-03-09T15:17:23;9.85;;;2.70;;
78610;SDS011;67932;50.474;4.436;2023-03-09T15:19:49;10.45;;;2.28;;
78610;SDS011;67932;50.474;4.436;2023-03-09T15:22:16;12.90;;;3.42;;
78610;SDS011;67932;50.474;4.436;2023-03-09T15:24:42;15.38;;;3.20;;
78610;SDS011;67932;50.474;4.436;2023-03-09T15:27:09;13.02;;;2.78;;
78610;SDS011;67932;50.474;4.436;2023-03-09T15:29:40;16.02;;;2.95;;
78610;SDS011;67932;50.474;4.436;2023-03-09T15:32:25;13.38;;;2.78;;
78610;SDS011;67932;50.474;4.436;2023-03-09T15:34:51;14.00;;;2.72;;
78610;SDS011;67932;50.474;4.436;2023-03-09T15:37:17;13.63;;;2.58;;
78610;SDS011;67932;50.474;4.436;2023-03-09T15:39:44;12.00;;;2.38;;
78610;SDS011;67932;50.474;4.436;2023-03-09T15:42:10;10.20;;;2.15;;
78610;SDS011;67932;50.474;4.436;2023-03-09T15:47:18;9.80;;;3.30;;
78610;SDS011;67932;50.474;4.436;2023-03-09T15:49:44;12.07;;;3.00;;
78610;SDS011;67932;50.474;4.436;2023-03-09T15:52:10;15.43;;;2.70;;
78610;SDS011;67932;50.474;4.436;2023-03-09T15:54:36;19.35;;;3.65;;
78610;SDS011;67932;50.474;4.436;2023-03-09T15:57:03;15.02;;;3.38;;
78610;SDS011;67932;50.474;4.436;2023-03-09T15:59:30;18.95;;;3.55;;
78610;SDS011;67932;50.474;4.436;2023-03-09T16:01:56;13.55;;;2.83;;
78610;SDS011;67932;50.474;4.436;2023-03-09T16:04:22;10.82;;;2.90;;
78610;SDS011;67932;50.474;4.436;2023-03-09T16:06:48;9.15;;;2.25;;
78610;SDS011;67932;50.474;4.436;2023-03-09T16:09:14;15.88;;;3.00;;
78610;SDS011;67932;50.474;4.436;2023-03-09T16:11:40;16.63;;;2.55;;
78610;SDS011;67932;50.474;4.436;2023-03-09T16:14:06;13.93;;;3.67;;
78610;SDS011;67932;50.474;4.436;2023-03-09T16:16:33;14.10;;;2.97;;
78610;SDS011;67932;50.474;4.436;2023-03-09T16:18:59;15.18;;;2.70;;
78610;SDS011;67932;50.474;4.436;2023-03-09T16:21:25;12.95;;;3.85;;
78610;SDS011;67932;50.474;4.436;2023-03-09T16:23:51;15.50;;;2.30;;
78610;SDS011;67932;50.474;4.436;2023-03-09T16:26:18;13.02;;;2.90;;
78610;SDS011;67932;50.474;4.436;2023-03-09T16:28:45;10.75;;;2.63;;
78610;SDS011;67932;50.474;4.436;2023-03-09T16:31:17;12.88;;;2.90;;
78610;SDS011;67932;50.474;4.436;2023-03-09T16:33:43;14.93;;;3.25;;
78610;SDS011;67932;50.474;4.436;2023-03-09T16:36:09;11.88;;;2.35;;
78610;SDS011;67932;50.474;4.436;2023-03-09T16:38:36;11.98;;;3.15;;
78610;SDS011;67932;50.474;4.436;2023-03-09T16:41:05;18.27;;;3.17;;